createdAt,value
2019-05-13T00:00:53.730Z,27.47
2019-05-13T00:03:20.120Z,27.59
2019-05-13T00:05:47.277Z,27.57
2019-05-13T00:08:14.288Z,27.59
2019-05-13T00:10:43.508Z,27.61
2019-05-13T00:13:09.794Z,27.68
2019-05-13T00:15:36.693Z,27.84
2019-05-13T00:18:04.092Z,27.90
2019-05-13T00:20:33.529Z,28.05
2019-05-13T00:22:59.789Z,27.95
2019-05-13T00:25:26.754Z,28.01
2019-05-13T00:27:54.589Z,28.15
2019-05-13T00:30:23.425Z,28.00
2019-05-13T00:32:50.069Z,27.95
2019-05-13T00:35:17.374Z,27.91
2019-05-13T00:37:44.511Z,27.92
2019-05-13T00:40:14.107Z,28.00
2019-05-13T00:42:40.196Z,28.08
2019-05-13T00:45:07.168Z,28.16
2019-05-13T00:47:34.260Z,28.26
2019-05-13T00:50:03.512Z,28.33
2019-05-13T00:52:29.766Z,28.31
2019-05-13T00:54:56.641Z,28.26
2019-05-13T00:57:23.878Z,28.28
2019-05-13T00:59:50.889Z,28.34
2019-05-13T01:02:17.833Z,28.47
2019-05-13T01:04:44.704Z,28.42
2019-05-13T01:07:25.090Z,28.32
2019-05-13T01:09:40.169Z,28.41
2019-05-13T01:12:07.120Z,28.38
2019-05-13T01:14:34.306Z,28.52
2019-05-13T01:17:03.849Z,28.65
2019-05-13T01:19:31.072Z,28.77
2019-05-13T01:21:57.989Z,28.83
2019-05-13T01:24:24.960Z,28.71
2019-05-13T01:26:54.016Z,28.68
2019-05-13T01:29:20.486Z,28.73
2019-05-13T01:31:48.810Z,28.80
2019-05-13T01:34:15.700Z,28.96
2019-05-13T01:36:44.703Z,28.88
2019-05-13T01:39:13.704Z,28.84
2019-05-13T01:41:39.786Z,28.89
2019-05-13T01:44:06.676Z,28.95
2019-05-13T01:46:34.657Z,29.03
2019-05-13T01:49:01.725Z,29.00
2019-05-13T01:51:28.688Z,29.08
2019-05-13T01:53:55.549Z,29.30
2019-05-13T01:56:23.519Z,29.33
2019-05-13T01:58:50.596Z,29.44
2019-05-13T02:01:17.564Z,29.38
2019-05-13T02:03:44.529Z,29.41
2019-05-13T02:06:13.931Z,29.33
2019-05-13T02:08:40.047Z,29.39
2019-05-13T02:11:06.922Z,29.38
2019-05-13T02:13:34.353Z,29.38
2019-05-13T02:16:03.924Z,29.38
2019-05-13T02:18:30.122Z,29.45
2019-05-13T02:20:57.076Z,29.55
2019-05-13T02:23:24.269Z,29.66
2019-05-13T02:25:53.834Z,29.79
2019-05-13T02:28:20.040Z,29.80
2019-05-13T02:30:51.466Z,30.02
2019-05-13T02:33:23.130Z,30.13
2019-05-13T02:35:53.183Z,30.36
2019-05-13T02:38:24.810Z,30.42
2019-05-13T02:40:46.821Z,30.55
2019-05-13T02:43:13.872Z,30.52
2019-05-13T02:45:42.905Z,30.40
2019-05-13T02:48:12.427Z,30.30
2019-05-13T02:50:37.886Z,30.35
2019-05-13T02:53:04.786Z,30.41
2019-05-13T02:55:32.851Z,30.52
2019-05-13T02:58:02.988Z,30.52
2019-05-13T03:00:32.631Z,30.52
2019-05-13T03:02:57.692Z,30.50
2019-05-13T03:05:24.568Z,30.68
2019-05-13T03:07:53.043Z,30.83
2019-05-13T03:10:22.443Z,30.93
2019-05-13T03:12:48.766Z,30.99
2019-05-13T03:15:15.649Z,31.04
2019-05-13T03:17:43.336Z,30.97
2019-05-13T03:20:16.170Z,31.07
2019-05-13T03:22:39.127Z,31.04
2019-05-13T03:25:06.081Z,31.16
2019-05-13T03:27:34.004Z,31.05
2019-05-13T03:30:04.331Z,31.05
2019-05-13T03:32:37.756Z,31.04
2019-05-13T03:34:58.331Z,31.05
2019-05-13T03:37:26.632Z,31.04
2019-05-13T03:39:53.802Z,30.95
2019-05-13T03:42:22.545Z,30.98
2019-05-13T03:44:52.263Z,30.96
2019-05-13T03:47:17.927Z,30.89
2019-05-13T03:49:44.891Z,30.90
2019-05-13T03:52:13.542Z,30.80
2019-05-13T03:54:43.622Z,30.70
2019-05-13T03:57:12.563Z,30.67
2019-05-13T03:59:38.658Z,30.73
2019-05-13T04:02:05.616Z,30.70
2019-05-13T04:04:32.774Z,30.55
2019-05-13T04:07:02.619Z,30.39
2019-05-13T04:09:32.611Z,30.29
2019-05-13T04:11:56.894Z,30.33
2019-05-13T04:14:23.773Z,30.42
2019-05-13T04:16:53.162Z,30.53
2019-05-13T04:19:22.932Z,30.66
2019-05-13T04:21:47.833Z,30.71
2019-05-13T04:24:14.820Z,30.67
2019-05-13T04:26:43.237Z,30.74
2019-05-13T04:29:12.997Z,30.78
2019-05-13T04:31:42.226Z,30.79
2019-05-13T04:34:07.834Z,30.74
2019-05-13T04:36:34.765Z,30.64
2019-05-13T04:39:03.203Z,30.61
2019-05-13T04:41:33.103Z,30.51
2019-05-13T04:44:02.334Z,30.31
2019-05-13T04:46:27.634Z,30.15
2019-05-13T04:48:54.609Z,30.07
2019-05-13T04:51:22.679Z,29.95
2019-05-13T04:53:55.859Z,29.72
2019-05-13T04:56:18.488Z,29.47
2019-05-13T04:58:45.388Z,29.22
2019-05-13T05:01:14.042Z,29.06
2019-05-13T05:03:45.203Z,28.91
2019-05-13T05:06:12.042Z,28.86
2019-05-13T05:08:38.222Z,28.73
2019-05-13T05:11:05.169Z,28.63
2019-05-13T05:13:32.432Z,28.48
2019-05-13T05:16:02.646Z,28.30
2019-05-13T05:18:28.046Z,28.22
2019-05-13T05:20:54.921Z,28.07
2019-05-13T05:23:21.792Z,27.88
2019-05-13T05:25:48.763Z,27.62
2019-05-13T05:28:15.723Z,27.41
2019-05-13T05:30:42.653Z,27.21
2019-05-13T05:33:11.358Z,27.08
2019-05-13T05:35:38.142Z,26.89
2019-05-13T05:38:05.070Z,26.70
2019-05-13T05:40:34.754Z,26.56
2019-05-13T05:43:02.377Z,26.50
2019-05-13T05:45:31.819Z,26.40
2019-05-13T05:47:58.146Z,26.28
2019-05-13T05:50:25.050Z,26.20
2019-05-13T05:52:52.040Z,26.07
2019-05-13T05:55:20.816Z,25.73
2019-05-13T05:57:47.474Z,25.49
2019-05-13T06:00:14.366Z,25.31
2019-05-13T06:02:42.502Z,25.22
2019-05-13T06:05:11.830Z,25.21
2019-05-13T06:07:38.596Z,25.19
2019-05-13T06:10:06.443Z,25.06
2019-05-13T06:12:33.358Z,24.67
2019-05-13T06:15:02.631Z,24.69
2019-05-13T06:17:28.845Z,24.72
2019-05-13T06:19:55.814Z,24.65
2019-05-13T06:22:23.707Z,24.39
2019-05-13T06:24:52.166Z,24.17
2019-05-13T06:27:21.257Z,24.05
2019-05-13T06:29:49.279Z,23.95
2019-05-13T06:32:22.385Z,23.77
2019-05-13T06:34:44.993Z,24.57
2019-05-13T06:37:11.933Z,24.95
2019-05-13T06:39:38.793Z,24.83
2019-05-13T06:42:05.671Z,24.78
2019-05-13T06:44:32.621Z,24.93
2019-05-13T06:47:02.615Z,24.42
2019-05-13T06:49:29.045Z,24.11
2019-05-13T06:51:55.925Z,24.06
2019-05-13T06:54:22.869Z,23.57
2019-05-13T06:56:51.731Z,22.85
2019-05-13T06:59:18.500Z,22.59
2019-05-13T07:01:45.716Z,22.26
2019-05-13T07:04:12.580Z,21.93
2019-05-13T07:06:41.817Z,21.32
2019-05-13T07:09:08.414Z,21.04
2019-05-13T07:11:35.388Z,20.87
2019-05-13T07:14:02.675Z,20.31
2019-05-13T07:16:31.705Z,20.03
2019-05-13T07:18:58.701Z,19.67
2019-05-13T07:21:25.585Z,19.22
2019-05-13T07:23:54.906Z,18.85
2019-05-13T07:26:22.079Z,18.79
2019-05-13T07:28:51.961Z,18.54
2019-05-13T07:31:17.697Z,18.25
2019-05-13T07:33:44.653Z,18.11
2019-05-13T07:36:12.787Z,17.96
2019-05-13T07:38:41.604Z,17.67
2019-05-13T07:41:08.657Z,17.58
2019-05-13T07:43:35.598Z,17.45
2019-05-13T07:46:02.457Z,17.22
2019-05-13T07:48:31.864Z,17.41
2019-05-13T07:51:00.564Z,17.41
2019-05-13T07:53:27.663Z,17.21
2019-05-13T07:55:54.590Z,17.07
2019-05-13T07:58:22.921Z,16.79
2019-05-13T08:00:51.962Z,16.58
2019-05-13T08:03:21.250Z,16.58
2019-05-13T08:05:47.293Z,16.56
2019-05-13T08:08:14.221Z,16.45
2019-05-13T08:10:41.524Z,16.52
2019-05-13T08:13:08.664Z,16.67
2019-05-13T08:15:35.622Z,16.66
2019-05-13T08:18:02.536Z,16.87
2019-05-13T08:20:29.500Z,17.39
2019-05-13T08:22:56.869Z,17.81
2019-05-13T08:25:23.797Z,18.05
2019-05-13T08:27:51.467Z,18.26
2019-05-13T08:30:18.620Z,18.45
2019-05-13T08:32:45.506Z,18.97
2019-05-13T08:35:12.795Z,19.41
2019-05-13T08:37:41.377Z,19.94
2019-05-13T08:40:08.373Z,20.28
2019-05-13T08:42:35.252Z,20.76
2019-05-13T08:45:02.271Z,21.08
2019-05-13T08:47:31.400Z,21.52
2019-05-13T08:50:03.289Z,21.75
2019-05-13T08:52:26.642Z,22.19
2019-05-13T08:54:53.641Z,22.56
2019-05-13T08:57:22.122Z,22.95
2019-05-13T08:59:51.534Z,23.05
2019-05-13T09:02:17.900Z,23.27
2019-05-13T09:04:45.558Z,23.66
2019-05-13T09:07:12.445Z,24.13
2019-05-13T09:09:41.771Z,24.16
2019-05-13T09:12:11.443Z,24.34
2019-05-13T09:14:37.922Z,24.72
2019-05-13T09:17:04.864Z,25.06
2019-05-13T09:22:02.998Z,24.98
2019-05-13T09:24:34.189Z,25.25
2019-05-13T09:26:57.462Z,25.36
2019-05-13T09:29:24.338Z,25.12
2019-05-13T09:31:52.060Z,25.45
2019-05-13T09:34:21.902Z,25.27
2019-05-13T09:36:47.769Z,25.22
2019-05-13T09:39:14.741Z,24.83
2019-05-13T09:41:44.497Z,24.69
2019-05-13T09:44:12.344Z,24.94
2019-05-13T09:46:38.820Z,24.94
2019-05-13T09:49:16.224Z,24.35
2019-05-13T09:51:34.334Z,24.17
2019-05-13T09:54:01.495Z,24.30
2019-05-13T09:56:28.540Z,24.38
2019-05-13T09:58:56.376Z,24.70
2019-05-13T10:01:23.265Z,24.53
2019-05-13T10:03:55.024Z,24.44
2019-05-13T10:06:18.856Z,24.72
2019-05-13T10:08:45.846Z,24.79
2019-05-13T10:11:12.796Z,24.64
2019-05-13T10:13:39.687Z,24.67
2019-05-13T10:16:07.618Z,24.36
2019-05-13T10:18:34.835Z,24.31
2019-05-13T10:21:01.795Z,23.87
2019-05-13T10:23:29.009Z,23.67
2019-05-13T10:25:55.906Z,23.79
2019-05-13T10:28:22.859Z,23.83
2019-05-13T10:30:53.119Z,23.99
2019-05-13T10:33:18.649Z,23.81
2019-05-13T10:35:45.538Z,23.84
2019-05-13T10:38:13.429Z,24.18
2019-05-13T10:40:43.282Z,24.09
2019-05-13T10:43:27.102Z,24.21
2019-05-13T10:45:38.082Z,23.88
2019-05-13T10:48:10.170Z,23.88
2019-05-13T10:50:33.625Z,23.81
2019-05-13T10:53:02.654Z,23.91
2019-05-13T10:55:31.734Z,23.52
2019-05-13T10:57:57.736Z,23.02
2019-05-13T11:00:24.710Z,23.22
2019-05-13T11:02:51.658Z,23.11
2019-05-13T11:05:18.881Z,23.29
2019-05-13T11:07:45.844Z,23.01
2019-05-13T11:10:13.525Z,22.87
2019-05-13T11:12:41.838Z,22.75
2019-05-13T11:15:08.870Z,22.17
2019-05-13T11:17:35.805Z,22.35
2019-05-13T11:20:03.683Z,22.76
2019-05-13T11:22:32.687Z,22.99
2019-05-13T11:24:59.404Z,23.18
2019-05-13T11:27:28.134Z,23.28
2019-05-13T11:29:55.016Z,23.41
2019-05-13T11:32:23.045Z,23.32
2019-05-13T11:34:53.103Z,23.03
2019-05-13T11:37:18.914Z,22.90
2019-05-13T11:39:45.854Z,23.18
2019-05-13T11:42:13.629Z,23.45
2019-05-13T11:44:42.973Z,23.65
2019-05-13T11:47:11.929Z,23.78
2019-05-13T11:49:38.020Z,23.98
2019-05-13T11:52:04.970Z,24.05
2019-05-13T11:54:31.837Z,24.16
2019-05-13T11:57:02.808Z,24.16
2019-05-13T11:59:27.375Z,24.13
2019-05-13T12:01:54.287Z,23.93
2019-05-13T12:04:24.003Z,23.78
2019-05-13T12:06:54.291Z,23.18
2019-05-13T12:09:18.648Z,23.04
2019-05-13T12:11:45.610Z,22.44
2019-05-13T12:14:37.342Z,22.19
2019-05-13T12:16:42.334Z,22.24
2019-05-13T12:19:11.810Z,22.52
2019-05-13T12:21:45.308Z,23.06
2019-05-13T12:24:10.655Z,22.99
2019-05-13T12:26:35.121Z,23.20
2019-05-13T12:29:02.716Z,23.43
2019-05-13T12:31:33.369Z,23.43
2019-05-13T12:33:58.921Z,23.56
2019-05-13T12:36:25.788Z,23.37
2019-05-13T12:38:53.819Z,23.27
2019-05-13T12:41:23.056Z,22.95
2019-05-13T12:43:53.591Z,22.61
2019-05-13T12:46:18.542Z,22.52
2019-05-13T12:48:45.429Z,22.47
2019-05-13T12:51:13.203Z,22.64
2019-05-13T12:53:43.444Z,22.80
2019-05-13T12:56:11.945Z,22.84
2019-05-13T12:58:37.746Z,23.13
2019-05-13T13:01:04.685Z,23.22
2019-05-13T13:03:32.333Z,23.00
2019-05-13T13:06:22.538Z,22.68
2019-05-13T13:08:40.044Z,22.61
2019-05-13T13:10:56.637Z,22.40
2019-05-13T13:15:53.293Z,22.15
2019-05-13T13:18:22.343Z,22.13
2019-05-13T13:20:57.994Z,22.14
2019-05-13T13:23:17.404Z,22.34
2019-05-13T13:25:53.097Z,22.51
2019-05-13T13:28:15.836Z,22.39
2019-05-13T13:30:44.148Z,22.26
2019-05-13T13:33:15.139Z,22.20
2019-05-13T13:35:44.095Z,22.12
2019-05-13T13:38:08.549Z,21.55
2019-05-13T13:40:35.784Z,21.98
2019-05-13T13:43:05.431Z,23.66
2019-05-13T13:45:36.720Z,23.65
2019-05-13T13:48:03.968Z,23.79
2019-05-13T13:50:28.500Z,23.96
2019-05-13T13:52:55.798Z,24.15
2019-05-13T13:55:25.789Z,22.89
2019-05-13T13:57:56.795Z,22.14
2019-05-13T14:00:37.615Z,21.62
2019-05-13T14:02:48.497Z,21.24
2019-05-13T14:05:15.437Z,21.04
2019-05-13T14:06:50.057Z,22.16
2019-05-13T14:07:02.788Z,25.15
2019-05-13T14:07:42.776Z,21.09
2019-05-13T14:10:11.596Z,21.00
2019-05-13T14:12:38.300Z,21.01
2019-05-13T14:15:05.297Z,21.08
2019-05-13T14:17:32.334Z,20.79
2019-05-13T14:19:59.261Z,20.70
2019-05-13T14:22:26.423Z,21.85
2019-05-13T14:24:54.510Z,22.25
2019-05-13T14:27:22.425Z,22.73
2019-05-13T14:29:52.382Z,22.44
2019-05-13T14:32:18.126Z,21.85
2019-05-13T14:34:46.162Z,21.49
2019-05-13T14:37:13.169Z,21.42
2019-05-13T14:39:40.438Z,21.20
2019-05-13T14:42:07.417Z,21.17
2019-05-13T14:44:34.792Z,20.66
2019-05-13T14:47:01.741Z,20.90
2019-05-13T14:49:28.707Z,20.47
2019-05-13T14:51:56.422Z,20.68
2019-05-13T14:54:23.565Z,20.57
2019-05-13T14:56:52.204Z,20.51
2019-05-13T14:59:21.861Z,20.54
2019-05-13T15:01:47.889Z,20.55
2019-05-13T15:04:14.775Z,20.25
2019-05-13T15:06:41.860Z,20.16
2019-05-13T15:09:12.337Z,19.84
2019-05-13T15:11:41.251Z,19.75
2019-05-13T15:14:07.572Z,19.67
2019-05-13T15:16:34.599Z,19.67
2019-05-13T15:19:01.915Z,19.70
2019-05-13T15:21:28.865Z,19.65
2019-05-13T15:23:56.250Z,19.67
2019-05-13T15:26:23.195Z,19.70
2019-05-13T15:28:51.832Z,19.54
2019-05-13T15:31:21.798Z,19.64
2019-05-13T15:33:48.098Z,19.83
2019-05-13T15:36:14.974Z,19.75
2019-05-13T15:38:41.894Z,19.50
2019-05-13T15:41:12.115Z,19.55
2019-05-13T15:43:37.450Z,19.51
2019-05-13T15:46:04.673Z,19.49
2019-05-13T15:48:31.854Z,19.59
2019-05-13T15:50:58.809Z,19.59
2019-05-13T15:53:26.475Z,19.76
2019-05-13T15:55:53.431Z,19.72
2019-05-13T15:58:37.760Z,19.90
2019-05-13T16:00:49.058Z,19.85
2019-05-13T16:03:16.287Z,19.71
2019-05-13T16:05:43.241Z,19.63
2019-05-13T16:08:12.146Z,19.74
2019-05-13T16:10:38.901Z,19.73
2019-05-13T16:13:05.906Z,19.63
2019-05-13T16:15:32.833Z,19.60
2019-05-13T16:17:59.725Z,19.73
2019-05-13T16:20:26.694Z,19.87
2019-05-13T16:22:54.327Z,19.88
2019-05-13T16:25:21.224Z,19.85
2019-05-13T16:27:48.165Z,19.75
2019-05-13T16:30:16.132Z,19.72
2019-05-13T16:32:43.530Z,19.72
2019-05-13T16:35:10.514Z,19.64
2019-05-13T16:37:37.460Z,19.72
2019-05-13T16:40:04.727Z,19.72
2019-05-13T16:42:31.950Z,19.75
2019-05-13T16:44:59.376Z,19.92
2019-05-13T16:47:26.633Z,19.97
2019-05-13T16:49:53.588Z,20.12
2019-05-13T16:52:22.042Z,20.23
2019-05-13T16:54:49.105Z,20.26
2019-05-13T16:57:15.989Z,20.34
2019-05-13T16:59:42.927Z,20.36
2019-05-13T17:02:12.340Z,20.52
2019-05-13T17:04:38.607Z,20.39
2019-05-13T17:07:05.967Z,20.48
2019-05-13T17:09:32.912Z,20.55
2019-05-13T17:12:01.466Z,20.62
2019-05-13T17:14:28.548Z,20.65
2019-05-13T17:16:55.835Z,20.43
2019-05-13T17:19:22.794Z,20.40
2019-05-13T17:21:51.969Z,20.48
2019-05-13T17:24:18.426Z,20.63
2019-05-13T17:26:45.859Z,20.50
2019-05-13T17:29:12.766Z,20.50
2019-05-13T17:31:41.679Z,20.39
2019-05-13T17:34:08.974Z,20.32
2019-05-13T17:36:38.846Z,20.22
2019-05-13T17:39:05.830Z,20.07
2019-05-13T17:41:32.760Z,19.94
2019-05-13T17:43:59.653Z,19.91
2019-05-13T17:46:26.545Z,20.09
2019-05-13T17:48:53.785Z,19.95
2019-05-13T17:51:22.565Z,19.95
2019-05-13T17:53:51.902Z,20.10
2019-05-13T17:56:18.294Z,20.53
2019-05-13T17:58:45.162Z,20.67
2019-05-13T18:01:12.199Z,20.69
2019-05-13T18:03:41.182Z,20.63
2019-05-13T18:06:08.755Z,20.52
2019-05-13T18:08:36.053Z,20.43
2019-05-13T18:11:03.090Z,20.37
2019-05-13T18:13:30.299Z,20.36
2019-05-13T18:15:57.556Z,20.55
2019-05-13T18:18:38.630Z,20.50
2019-05-13T18:20:53.010Z,20.56
2019-05-13T18:23:20.286Z,20.67
2019-05-13T18:25:48.329Z,20.79
2019-05-13T18:28:27.730Z,20.85
2019-05-13T18:30:43.820Z,21.02
2019-05-13T18:33:12.151Z,21.15
2019-05-13T18:35:41.700Z,21.15
2019-05-13T18:38:08.361Z,21.18
2019-05-13T18:40:35.239Z,21.30
2019-05-13T18:43:02.130Z,21.46
2019-05-13T18:45:29.395Z,21.55
2019-05-13T18:47:57.399Z,21.59
2019-05-13T18:50:24.319Z,21.76
2019-05-13T18:52:52.466Z,21.83
2019-05-13T18:55:20.578Z,21.84
2019-05-13T18:57:47.851Z,21.85
2019-05-13T19:00:15.230Z,21.93
2019-05-13T19:02:42.592Z,21.92
2019-05-13T19:05:11.869Z,22.02
2019-05-13T19:07:41.689Z,22.21
2019-05-13T19:10:08.108Z,22.31
2019-05-13T19:12:35.084Z,22.39
2019-05-13T19:15:02.546Z,22.54
2019-05-13T19:17:32.077Z,22.58
2019-05-13T19:19:58.249Z,22.70
2019-05-13T19:22:25.192Z,22.84
2019-05-13T19:24:52.169Z,22.92
2019-05-13T19:27:21.421Z,23.04
2019-05-13T19:29:48.054Z,23.15
2019-05-13T19:32:15.015Z,23.27
2019-05-13T19:34:42.476Z,23.43
2019-05-13T19:37:11.539Z,23.65
2019-05-13T19:39:38.709Z,23.83
2019-05-13T19:42:05.664Z,24.02
2019-05-13T19:44:32.618Z,24.19
2019-05-13T19:47:01.742Z,24.27
2019-05-13T19:49:33.033Z,24.45
2019-05-13T19:51:56.753Z,24.64
2019-05-13T19:54:23.717Z,24.84
2019-05-13T19:56:52.067Z,25.06
2019-05-13T19:59:21.457Z,25.33
2019-05-13T20:01:47.894Z,25.55
2019-05-13T20:04:14.821Z,25.75
2019-05-13T20:06:41.801Z,25.95
2019-05-13T20:09:09.349Z,26.17
2019-05-13T20:11:36.335Z,26.31
2019-05-13T20:14:03.277Z,26.43
2019-05-13T20:16:32.093Z,26.53
2019-05-13T20:19:01.126Z,26.67
2019-05-13T20:21:27.744Z,26.75
2019-05-13T20:23:54.709Z,26.83
2019-05-13T20:26:21.842Z,27.00
2019-05-13T20:28:51.179Z,27.15
2019-05-13T20:31:17.510Z,27.22
2019-05-13T20:33:44.410Z,27.42
2019-05-13T20:36:11.864Z,27.50
2019-05-13T20:38:39.056Z,27.63
2019-05-13T20:41:06.014Z,27.72
2019-05-13T20:43:33.050Z,27.86
2019-05-13T20:46:02.001Z,27.97
2019-05-13T20:48:28.685Z,28.12
2019-05-13T20:50:55.661Z,28.05
2019-05-13T20:53:22.593Z,28.04
2019-05-13T20:55:51.989Z,28.11
2019-05-13T20:58:18.359Z,28.17
2019-05-13T21:00:45.624Z,28.13
2019-05-13T21:03:12.577Z,28.14
2019-05-13T21:05:41.585Z,28.00
2019-05-13T21:08:08.019Z,27.91
2019-05-13T21:10:34.990Z,27.68
2019-05-13T21:13:01.968Z,27.42
2019-05-13T21:15:28.948Z,27.17
2019-05-13T21:17:55.922Z,26.99
2019-05-13T21:20:25.865Z,26.86
2019-05-13T21:22:52.112Z,26.67
2019-05-13T21:25:19.372Z,26.44
2019-05-13T21:27:46.674Z,26.17
2019-05-13T21:30:13.594Z,25.88
2019-05-13T21:32:40.489Z,25.72
2019-05-13T21:35:07.344Z,25.61
2019-05-13T21:37:34.620Z,25.54
2019-05-13T21:40:01.869Z,25.59
2019-05-13T21:42:29.244Z,25.64
2019-05-13T21:44:56.208Z,25.65
2019-05-13T21:47:23.162Z,25.72
2019-05-13T21:49:51.527Z,25.81
2019-05-13T21:52:18.701Z,25.92
2019-05-13T21:54:45.584Z,25.96
2019-05-13T21:57:12.552Z,25.98
2019-05-13T21:59:41.419Z,26.11
2019-05-13T22:02:08.112Z,26.25
2019-05-13T22:04:35.309Z,26.38
2019-05-13T22:07:02.233Z,26.55
2019-05-13T22:09:31.552Z,26.85
2019-05-13T22:11:58.093Z,26.97
2019-05-13T22:14:24.974Z,27.10
2019-05-13T22:16:51.889Z,27.32
2019-05-13T22:19:18.824Z,27.67
2019-05-13T22:21:45.713Z,27.80
2019-05-13T22:24:13.032Z,27.98
2019-05-13T22:26:42.025Z,28.08
2019-05-13T22:29:08.802Z,28.33
2019-05-13T22:31:35.685Z,28.61
2019-05-13T22:34:02.969Z,28.81
2019-05-13T22:36:31.742Z,28.96
2019-05-13T22:38:58.689Z,29.28
2019-05-13T22:41:25.624Z,29.58
2019-05-13T22:43:58.442Z,29.65
2019-05-13T22:46:21.524Z,29.70
2019-05-13T22:48:48.656Z,29.79
2019-05-13T22:51:15.574Z,29.88
2019-05-13T22:53:42.466Z,29.87
2019-05-13T22:56:09.417Z,29.99
2019-05-13T22:58:36.725Z,30.17
2019-05-13T23:01:03.621Z,30.24
2019-05-13T23:03:32.370Z,30.38
2019-05-13T23:06:01.492Z,30.45
2019-05-13T23:08:28.102Z,30.48
2019-05-13T23:10:54.984Z,30.59
2019-05-13T23:13:21.961Z,30.71
2019-05-13T23:15:51.484Z,30.85
2019-05-13T23:18:17.801Z,31.07
2019-05-13T23:20:44.667Z,31.25
2019-05-13T23:23:11.877Z,31.26
2019-05-13T23:25:40.199Z,31.35
2019-05-13T23:28:07.857Z,31.39
2019-05-13T23:30:34.789Z,31.61
2019-05-13T23:33:02.255Z,31.77
2019-05-13T23:35:29.324Z,31.95
2019-05-13T23:37:56.356Z,31.98
2019-05-13T23:40:23.328Z,32.04
2019-05-13T23:42:51.790Z,32.12
2019-05-13T23:45:18.971Z,32.45
2019-05-13T23:47:45.846Z,32.60
2019-05-13T23:50:12.737Z,32.57
2019-05-13T23:52:41.684Z,32.95
2019-05-13T23:55:08.250Z,33.00
2019-05-13T23:57:35.197Z,32.97
